Latest Weather Observations for Young

IDN60801

Issued at 11:35 pm EST Friday 29 August 2014 (issued every 30 minutes, with the page automatically refreshed every 10 minutes)

About weather observations | Map of weather stations | Latest weather observations for NSW | Other Formats
Station Details ID: 073138 Name: YOUNG AIRPORT Lat: -34.25 Lon: 148.25 Height: 379.6 m
Data from the previous 72 hours. | See also: Recent months at Young
Date/Time
EST
Temp
°C
App
Temp
°C
Dew
Point
Rel
Hum
%
Delta-T
°C
Wind Press
QNH
hPa
Press
MSL
hPa
Rain
since 9 am
mm
Dir
 
Spd
km/h
Gust
km/h
Spd
kts
Gust
kts
29/11:30pm 2.3 -1.5 1.6 95 0.3 S 11 11 6 6 1025.6 - 0.0
29/11:00pm 1.8 -2.1 1.2 96 0.2 S 11 11 6 6 1025.6 1026.3 0.0
29/10:30pm 2.4 -1.0 2.0 97 0.2 SSW 9 11 5 6 1025.6 - 0.0
29/10:00pm 2.4 -0.6 2.0 97 0.2 SE 7 7 4 4 1025.9 1026.5 0.0
29/09:30pm 2.4 -0.5 1.5 94 0.4 SSW 6 9 3 5 1025.7 - 0.0
29/09:00pm 3.4 1.8 2.5 94 0.4 CALM 0 6 0 3 1025.7 1026.4 0.0
29/08:30pm 4.0 1.2 3.0 93 0.4 SW 7 9 4 5 1025.6 - 0.0
29/08:00pm 4.1 1.4 2.8 91 0.5 SSW 6 7 3 4 1025.9 1026.5 0.0
29/07:30pm 5.3 2.3 4.0 91 0.6 S 9 11 5 6 1025.5 - 0.0
29/07:00pm 5.9 3.5 4.2 89 0.7 SW 6 7 3 4 1025.5 1026.2 0.0
29/06:30pm 7.2 4.7 4.7 84 1.1 S 7 9 4 5 1025.3 - 0.0
29/06:00pm 9.2 7.6 4.6 73 2.1 WSW 2 9 1 5 1025.1 1025.8 0.0
29/05:30pm 13.2 10.8 5.4 59 3.7 SE 7 11 4 6 1024.9 - 0.0
29/05:00pm 14.8 12.3 6.4 57 4.1 SSE 9 11 5 6 1024.7 1025.3 0.0
29/04:30pm 15.8 12.5 4.8 48 5.3 S 11 15 6 8 1024.7 - 0.0
29/04:00pm 16.2 12.3 5.5 49 5.2 S 15 17 8 9 1024.6 1025.2 0.0
29/03:30pm 15.9 12.3 4.9 48 5.3 S 13 19 7 10 1024.6 - 0.0
29/03:00pm 16.3 13.8 6.4 52 4.9 SSE 9 17 5 9 1024.8 1025.5 0.0
29/02:30pm 15.8 12.4 5.7 51 4.9 SSE 13 17 7 9 1025.0 - 0.0
29/02:00pm 16.1 13.3 6.8 54 4.6 S 11 17 6 9 1025.2 1025.9 0.0
29/01:30pm 16.0 12.3 6.4 53 4.8 SSE 15 20 8 11 1025.6 - 0.0
29/01:00pm 15.9 12.0 5.2 49 5.2 S 15 22 8 12 1026.0 1026.6 0.0
29/12:30pm 15.3 12.4 4.9 50 5.0 S 9 20 5 11 1026.4 - 0.0
29/12:00pm 15.2 13.6 8.2 63 3.6 SE 6 13 3 7 1026.9 1027.5 0.0
29/11:30am 14.3 12.6 7.6 64 3.4 W 6 11 3 6 1027.4 - 0.0
29/11:00am 14.7 14.0 8.4 66 3.2 E 2 11 1 6 1027.8 1028.5 0.0
29/10:30am 13.5 11.5 7.3 66 3.1 ESE 7 9 4 5 1027.9 - 0.0
29/10:00am 12.7 10.6 8.2 74 2.3 ESE 9 15 5 8 1028.1 1028.8 0.0
29/09:30am 11.4 9.8 8.1 80 1.6 SE 6 9 3 5 1028.3 - 0.0
29/09:00am 9.5 7.7 7.8 89 0.8 S 7 11 4 6 1028.4 1029.1 0.0
29/08:30am 6.5 4.9 6.4 99 0.0 SSW 4 7 2 4 1028.4 - 0.0
29/08:00am 3.5 0.9 3.4 99 0.0 S 6 7 3 4 1028.2 1028.9 0.0
29/07:30am 0.9 -2.1 0.8 99 0.0 S 6 7 3 4 1028.0 - 0.0
29/07:00am -0.5 -3.9 -0.6 99 0.0 SSE 7 7 4 4 1027.9 1028.6 0.0
29/06:30am -0.4 -3.6 -0.5 99 0.0 S 6 7 3 4 1027.7 - 0.0
29/06:00am -0.4 -3.8 -0.7 98 0.1 S 7 7 4 4 1027.4 1028.1 0.0
29/05:30am -0.3 -3.7 -0.6 98 0.1 S 7 7 4 4 1027.1 - 0.0
29/05:00am -0.1 -3.4 -0.2 99 0.0 SSE 7 7 4 4 1027.0 1027.7 0.0
29/04:30am 0.4 -2.7 0.3 99 0.0 SSW 6 7 3 4 1027.0 - 0.0
29/04:00am 0.1 -3.2 -0.2 98 0.1 SSW 7 7 4 4 1027.0 1027.7 0.0
29/03:30am 0.4 -1.6 0.1 98 0.1 CALM 0 0 0 0 1027.0 - 0.0
29/03:00am 0.5 -2.6 0.2 98 0.1 SSW 6 6 3 3 1026.8 1027.4 0.0
29/02:30am 1.1 -1.9 0.8 98 0.1 S 6 7 3 4 1026.9 - 0.0
29/02:00am 1.5 -1.6 1.2 98 0.1 S 7 9 4 5 1027.2 1027.9 0.0
29/01:30am 1.9 -1.0 1.6 98 0.1 S 6 7 3 4 1027.6 - 0.0
29/01:00am 2.1 -0.8 1.7 97 0.2 SSW 6 7 3 4 1027.8 1028.5 0.0
29/12:30am 3.2 1.3 3.1 99 0.0 SW 2 7 1 4 1027.9 - 0.0
29/12:00am 2.6 -0.4 2.3 98 0.1 SW 7 7 4 4 1028.1 1028.8 0.0
 
Date/Time
EST
Temp
°C
App
Temp
°C
Dew
Point
Rel
Hum
%
Delta-T
°C
Wind Press
QNH
hPa
Press
MSL
hPa
Rain
since 9 am
mm
Dir
 
Spd
km/h
Gust
km/h
Spd
kts
Gust
kts
28/11:30pm 2.9 0.2 2.5 97 0.2 SSW 6 9 3 5 1028.0 - 0.0
28/11:00pm 2.7 -0.1 2.1 96 0.2 SW 6 7 3 4 1028.0 1028.7 0.0
28/10:30pm 3.1 0.2 2.5 96 0.2 SW 7 9 4 5 1028.0 - 0.0
28/10:00pm 3.1 0.3 2.2 94 0.4 SW 6 7 3 4 1028.1 1028.8 0.0
28/09:30pm 4.2 1.5 3.6 96 0.3 S 7 9 4 5 1028.1 - 0.0
28/09:00pm 4.6 1.9 3.7 94 0.4 SSW 7 9 4 5 1028.0 1028.7 0.0
28/08:30pm 4.8 1.8 4.1 95 0.3 S 9 11 5 6 1027.8 - 0.0
28/08:00pm 5.0 2.4 4.0 93 0.4 S 7 9 4 5 1027.5 1028.2 0.0
28/07:30pm 5.3 2.6 3.8 90 0.6 SSW 7 9 4 5 1027.3 - 0.0
28/07:00pm 6.8 4.3 5.0 88 0.8 SW 7 9 4 5 1027.1 1027.8 0.0
28/06:30pm 7.2 4.8 4.3 82 1.3 WSW 6 7 3 4 1027.0 - 0.0
28/06:00pm 10.0 7.7 5.8 75 2.0 SSW 7 7 4 4 1026.7 1027.3 0.0
28/05:30pm 13.7 11.7 7.0 64 3.3 SE 7 11 4 6 1026.4 - 0.0
28/05:00pm 15.0 13.0 7.1 59 3.9 SE 7 9 4 5 1026.2 1026.8 0.0
28/04:30pm 15.4 13.0 6.9 57 4.3 SSE 9 13 5 7 1026.0 - 0.0
28/04:00pm 16.1 13.7 7.1 55 4.5 SE 9 17 5 9 1026.0 1026.6 0.0
28/03:30pm 15.6 11.9 6.3 54 4.6 SE 15 30 8 16 1026.0 - 0.0
28/03:00pm 16.1 11.9 7.3 56 4.4 ESE 19 22 10 12 1026.1 1026.7 0.0
28/02:30pm 15.8 11.5 6.8 55 4.5 E 19 30 10 16 1026.2 - 0.0
28/02:00pm 14.8 10.8 6.6 58 4.0 SE 17 28 9 15 1026.3 1026.9 0.0
28/01:30pm 15.7 11.3 6.7 55 4.5 ESE 19 26 10 14 1026.4 - 0.0
28/01:00pm 15.7 11.3 7.5 58 4.1 E 20 32 11 17 1026.5 1027.1 0.0
28/12:30pm 15.6 10.9 7.6 59 4.1 E 22 30 12 16 1026.8 - 0.0
28/12:00pm 14.5 9.7 7.5 63 3.5 SE 22 32 12 17 1027.2 1027.9 0.0
28/11:30am 14.5 9.4 7.5 63 3.5 SE 24 33 13 18 1027.6 - 0.0
28/11:00am 13.5 8.5 6.4 62 3.4 ESE 22 35 12 19 1028.1 1028.8 0.0
28/10:30am 13.6 8.3 6.9 64 3.3 SE 24 33 13 18 1028.1 - 0.0
28/10:00am 12.5 7.4 6.1 65 3.1 SE 22 32 12 17 1028.4 1029.1 0.0
28/09:30am 11.3 5.9 4.3 62 3.2 SE 22 33 12 18 1028.6 - 0.0
28/09:00am 10.7 5.7 4.6 66 2.8 SE 20 30 11 16 1028.4 1029.1 0.0
28/08:30am 9.4 3.7 4.8 73 2.1 SSE 24 33 13 18 1028.2 - 0.0
28/08:00am 8.1 3.7 4.9 80 1.4 SSE 17 20 9 11 1028.0 1028.7 0.0
28/07:30am 6.4 2.3 4.2 86 1.0 S 15 17 8 9 1027.9 - 0.0
28/07:00am 3.8 0.1 2.5 91 0.5 S 11 13 6 7 1027.7 1028.4 0.0
28/06:30am 3.3 0.9 2.4 94 0.4 E 4 7 2 4 1027.5 - 0.0
28/06:00am 3.7 0.4 2.7 93 0.4 S 9 13 5 7 1027.2 1027.9 0.0
28/05:30am 3.1 -0.2 2.2 94 0.4 SSW 9 11 5 6 1027.0 - 0.0
28/05:00am 2.2 0.5 1.9 98 0.1 CALM 0 2 0 1 1026.9 1027.5 0.0
28/04:30am 1.9 -1.0 1.3 96 0.2 S 6 7 3 4 1026.9 - 0.0
28/04:00am 2.8 0.8 2.1 95 0.3 S 2 7 1 4 1027.0 1027.7 0.0
28/03:30am 2.7 -0.2 1.7 93 0.4 SSW 6 7 3 4 1026.9 - 0.0
28/03:00am 4.7 2.1 4.1 96 0.3 SW 7 7 4 4 1026.8 1027.4 0.0
28/02:30am 3.1 0.7 2.2 94 0.4 W 4 7 2 4 1026.8 - 0.0
28/02:00am 3.4 0.7 2.5 94 0.4 WSW 6 7 3 4 1027.1 1027.8 0.0
28/01:30am 5.3 2.7 4.1 92 0.5 SSW 7 9 4 5 1027.2 - 0.0
28/01:00am 5.7 3.3 4.3 91 0.6 SSW 6 7 3 4 1027.3 1028.0 0.0
28/12:30am 4.5 1.8 2.7 88 0.7 SW 6 9 3 5 1027.3 - 0.0
28/12:00am 6.0 4.5 3.2 82 1.2 CALM 0 7 0 4 1027.2 1027.9 0.0
 
Date/Time
EST
Temp
°C
App
Temp
°C
Dew
Point
Rel
Hum
%
Delta-T
°C
Wind Press
QNH
hPa
Press
MSL
hPa
Rain
since 9 am
mm
Dir
 
Spd
km/h
Gust
km/h
Spd
kts
Gust
kts
27/11:30pm 8.0 5.1 4.8 80 1.4 SE 9 15 5 8 1027.1 - 0.0
27/11:00pm 8.0 5.1 4.8 80 1.4 SSE 9 13 5 7 1027.2 1027.9 0.0
27/10:30pm 7.5 5.0 4.6 82 1.3 E 7 11 4 6 1027.0 - 0.0
27/10:00pm 5.8 3.5 3.0 82 1.2 SSW 4 7 2 4 1027.1 1027.8 0.0
27/09:30pm 8.8 5.9 4.4 74 2.0 E 9 15 5 8 1026.9 - 0.0
27/09:00pm 9.3 6.4 4.5 72 2.2 ESE 9 11 5 6 1026.8 1027.4 0.0
27/08:30pm 9.9 7.1 5.3 73 2.1 E 9 15 5 8 1026.6 - 0.0
27/08:00pm 7.7 5.0 3.7 76 1.7 E 7 9 4 5 1026.6 1027.2 0.0
27/07:30pm 7.6 6.2 3.5 75 1.8 CALM 0 0 0 0 1026.4 - 0.0
27/07:00pm 9.5 7.0 3.5 66 2.6 SSE 6 9 3 5 1026.1 1026.7 0.0
27/06:30pm 10.9 7.1 4.1 63 3.1 SSE 13 19 7 10 1025.6 - 0.0
27/06:00pm 10.9 7.9 3.9 62 3.2 SSE 9 13 5 7 1025.3 1026.0 0.0
27/05:30pm 12.8 9.2 5.2 60 3.6 SE 13 17 7 9 1025.2 - 0.0
27/05:00pm 14.4 10.5 5.2 54 4.4 SE 15 22 8 12 1025.1 1025.8 0.0
27/04:30pm 14.6 9.9 5.1 53 4.6 ESE 19 30 10 16 1024.9 - 0.0
27/04:00pm 16.0 11.8 5.9 51 4.9 SE 17 26 9 14 1024.6 1025.2 0.0
27/03:30pm 15.8 10.8 4.5 47 5.4 ESE 20 32 11 17 1024.6 - 0.0
27/03:00pm 16.2 11.3 4.9 47 5.4 SE 20 28 11 15 1024.6 1025.2 0.0
27/02:30pm 15.8 10.0 4.5 47 5.4 ESE 24 32 13 17 1024.7 - 0.0
27/02:00pm 15.8 10.2 5.4 50 5.0 ESE 24 35 13 19 1024.7 1025.3 0.0
27/01:30pm 16.0 10.9 5.9 51 5.0 ESE 22 33 12 18 1024.7 - 0.0
27/01:00pm 15.0 8.4 4.1 48 5.1 ESE 28 37 15 20 1025.0 1025.7 0.0
27/12:30pm 15.0 9.3 4.7 50 4.9 ESE 24 33 13 18 1025.3 - 0.0
27/12:00pm 14.5 8.0 4.5 51 4.7 ESE 28 39 15 21 1025.6 1026.3 0.0
27/11:30am 14.2 8.1 4.8 53 4.5 ESE 26 39 14 21 1026.0 - 0.0
27/11:00am 14.1 7.9 6.0 58 3.9 ESE 28 43 15 23 1026.3 1026.9 0.0
27/10:30am 13.4 6.3 5.3 58 3.9 SE 32 43 17 23 1026.7 - 0.0
27/10:09am 13.2 7.0 6.1 62 3.4 ESE 28 46 15 25 1026.5 - 0.0
27/10:00am 12.6 5.3 5.3 61 3.4 ESE 33 46 18 25 1026.5 1027.1 0.0
27/09:37am 12.3 5.2 5.5 63 3.2 SE 32 52 17 28 1026.4 - 0.0
27/09:30am 12.6 6.1 6.6 67 2.9 ESE 30 44 16 24 1026.3 - 0.0
27/09:00am 11.8 5.7 6.5 70 2.5 SE 28 39 15 21 1026.2 1026.8 0.0
27/08:30am 11.1 5.7 6.5 73 2.2 SE 24 37 13 20 1026.0 - 0.0
27/08:00am 10.3 4.9 6.3 76 1.9 SE 24 35 13 19 1025.6 1026.3 0.0
27/07:30am 9.2 4.7 5.9 80 1.5 SE 19 28 10 15 1025.4 - 0.0
27/07:00am 8.3 4.9 5.9 85 1.1 SE 13 19 7 10 1025.2 1025.9 0.0
27/06:30am 8.2 4.0 5.8 85 1.1 SSE 17 24 9 13 1024.9 - 0.0
27/06:00am 8.7 4.6 6.2 84 1.2 SE 17 26 9 14 1024.6 1025.2 0.0
27/05:30am 8.7 4.7 6.5 86 1.0 SE 17 28 9 15 1024.5 - 0.0
27/05:00am 7.7 4.4 6.2 90 0.7 SSE 13 17 7 9 1024.4 1025.0 0.0
27/04:30am 7.9 5.0 6.4 90 0.7 SSE 11 19 6 10 1024.1 - 0.0
27/04:00am 7.7 4.4 6.2 90 0.7 SSE 13 19 7 10 1024.1 1024.7 0.0
27/03:30am 8.1 4.4 6.4 89 0.8 SSE 15 22 8 12 1024.1 - 0.0
27/03:00am 8.2 4.9 6.5 89 0.8 S 13 19 7 10 1024.1 1024.7 0.0
27/02:30am 8.4 4.4 6.5 88 0.9 SSE 17 22 9 12 1024.4 - 0.0
27/02:00am 8.7 4.7 6.8 88 0.9 SSE 17 24 9 13 1024.4 1025.0 0.0
27/01:30am 9.1 4.8 6.9 86 1.1 SSE 19 24 10 13 1024.4 - 0.0
27/01:00am 10.3 6.4 7.2 81 1.5 SE 17 26 9 14 1024.6 1025.2 0.0
27/12:30am 10.8 7.0 7.7 81 1.5 SE 17 28 9 15 1024.8 - 0.0
27/12:00am 10.2 7.6 7.6 84 1.3 SE 11 19 6 10 1024.8 1025.5 0.0

Other Formats:

Comma delimited format used in spreadsheet applications
http://www.bom.gov.au/fwo/IDN60801/IDN60801.94712.axf

JavaScript Object Notation format (JSON) in row-major order
http://www.bom.gov.au/fwo/IDN60801/IDN60801.94712.json